Time;durP1;ratioP1;P1;durP2;ratioP2;P2;SDS_P1;SDS_P2;PMS_P1;PMS_P2;Temp;Humidity;BMP_temperature;BMP_pressure;BME280_temperature;BME280_humidity;BME280_pressure;Samples;Min_cycle;Max_cycle;Signal;HPM_P1;HPM_P2
2022/02/20 00:00:50;;;;;;;6.63;4.82;;;;;;;;;;4825771;29;20466;-87
2022/02/20 00:03:17;;;;;;;5.45;4.95;;;;;;;;;;4830630;29;20339;-85
2022/02/20 00:05:44;;;;;;;5.50;4.85;;;;;;;;;;4819458;29;20432;-75
2022/02/20 00:08:10;;;;;;;5.35;4.60;;;;;;;;;;4821092;29;20050;-78
2022/02/20 00:10:36;;;;;;;5.40;4.57;;;;;;;;;;4816101;29;20057;-77
2022/02/20 00:13:03;;;;;;;7.07;4.68;;;;;;;;;;4807121;29;20046;-76
2022/02/20 00:15:30;;;;;;;4.97;3.97;;;;;;;;;;4807121;29;20053;-80
2022/02/20 00:17:57;;;;;;;4.93;4.05;;;;;;;;;;4806241;29;20586;-80
2022/02/20 00:20:25;;;;;;;4.80;4.30;;;;;;;;;;4850329;29;20401;-77
2022/02/20 00:22:51;;;;;;;5.63;4.20;;;;;;;;;;4806076;29;20138;-77
2022/02/20 00:25:18;;;;;;;5.82;4.28;;;;;;;;;;4806792;29;20373;-77
2022/02/20 00:27:44;;;;;;;5.47;4.80;;;;;;;;;;4805263;29;20124;-77
2022/02/20 00:30:10;;;;;;;6.80;4.70;;;;;;;;;;4806410;29;20057;-76
2022/02/20 00:32:36;;;;;;;5.97;4.78;;;;;;;;;;4805590;29;20049;-77
2022/02/20 00:35:02;;;;;;;8.32;5.40;;;;;;;;;;4822263;29;20050;-77
2022/02/20 00:37:29;;;;;;;5.93;4.93;;;;;;;;;;4806191;29;20540;-80
2022/02/20 00:39:55;;;;;;;6.32;4.88;;;;;;;;;;4819992;29;20137;-77
2022/02/20 00:42:21;;;;;;;8.30;4.75;;;;;;;;;;4819933;29;20041;-77
2022/02/20 00:44:47;;;;;;;5.93;4.60;;;;;;;;;;4806286;29;20054;-77
2022/02/20 00:47:13;;;;;;;8.85;4.35;;;;;;;;;;4791644;29;20045;-77
2022/02/20 00:49:39;;;;;;;5.32;3.30;;;;;;;;;;4805195;29;20042;-77
2022/02/20 00:52:06;;;;;;;8.00;4.50;;;;;;;;;;4806623;29;20069;-77
2022/02/20 00:54:32;;;;;;;6.28;3.95;;;;;;;;;;4805394;29;20132;-80
2022/02/20 00:56:58;;;;;;;4.68;3.70;;;;;;;;;;4836806;29;20054;-77
2022/02/20 00:59:24;;;;;;;5.10;3.80;;;;;;;;;;4807563;29;20133;-77
2022/02/20 01:01:50;;;;;;;6.00;3.90;;;;;;;;;;4817806;29;20383;-76
2022/02/20 01:04:16;;;;;;;6.50;3.92;;;;;;;;;;4822410;29;20042;-77
2022/02/20 01:06:42;;;;;;;6.38;4.32;;;;;;;;;;4806351;29;20088;-76
2022/02/20 01:09:08;;;;;;;4.65;3.67;;;;;;;;;;4805373;29;20130;-77
2022/02/20 01:11:34;;;;;;;4.70;2.92;;;;;;;;;;4821992;29;20132;-79
2022/02/20 01:14:00;;;;;;;5.70;4.20;;;;;;;;;;4836455;29;20457;-77
2022/02/20 01:16:26;;;;;;;6.28;4.47;;;;;;;;;;4803488;29;20478;-76
2022/02/20 01:18:52;;;;;;;5.28;4.07;;;;;;;;;;4805813;29;20666;-76
2022/02/20 01:21:18;;;;;;;3.92;3.20;;;;;;;;;;4818534;29;20662;-77
2022/02/20 01:23:44;;;;;;;3.80;2.92;;;;;;;;;;4807001;29;20057;-76
2022/02/20 01:26:10;;;;;;;5.45;3.63;;;;;;;;;;4809212;29;20062;-76
2022/02/20 01:28:37;;;;;;;5.93;3.53;;;;;;;;;;4823120;29;20049;-79
2022/02/20 01:31:03;;;;;;;5.63;4.40;;;;;;;;;;4810625;29;20105;-77
2022/02/20 01:33:29;;;;;;;5.22;4.20;;;;;;;;;;4823240;29;20490;-77
2022/02/20 01:35:57;;;;;;;7.43;4.07;;;;;;;;;;4822154;29;20358;-76
2022/02/20 01:38:23;;;;;;;5.85;4.25;;;;;;;;;;4819805;29;20374;-76
2022/02/20 01:40:50;;;;;;;11.20;4.35;;;;;;;;;;4821290;29;20137;-77
2022/02/20 01:43:16;;;;;;;7.25;4.10;;;;;;;;;;4825313;29;20065;-76
2022/02/20 01:45:43;;;;;;;6.32;4.32;;;;;;;;;;4822640;29;20513;-77
2022/02/20 01:48:09;;;;;;;5.35;4.00;;;;;;;;;;4820843;29;20102;-76
2022/02/20 01:50:35;;;;;;;10.05;4.05;;;;;;;;;;4808371;29;20058;-80
2022/02/20 01:53:01;;;;;;;8.18;4.70;;;;;;;;;;4821141;29;20058;-76
2022/02/20 01:55:28;;;;;;;6.13;4.43;;;;;;;;;;4809526;29;20046;-76
2022/02/20 01:57:54;;;;;;;5.70;4.50;;;;;;;;;;4818806;29;20057;-76
2022/02/20 02:00:21;;;;;;;5.70;4.45;;;;;;;;;;4836928;29;20049;-76
2022/02/20 02:02:47;;;;;;;6.40;4.28;;;;;;;;;;4824164;29;20065;-76
2022/02/20 02:05:13;;;;;;;5.97;4.32;;;;;;;;;;4829692;29;20046;-76
2022/02/20 02:07:39;;;;;;;7.82;3.63;;;;;;;;;;4823440;29;20054;-79
2022/02/20 02:10:06;;;;;;;5.38;3.38;;;;;;;;;;4808493;29;20146;-75
2022/02/20 02:12:33;;;;;;;4.57;3.75;;;;;;;;;;4824332;29;20049;-77
2022/02/20 02:15:04;;;;;;;8.05;3.55;;;;;;;;;;4822174;29;20038;-76
2022/02/20 02:17:30;;;;;;;4.72;4.25;;;;;;;;;;4806809;29;20363;-76
2022/02/20 02:19:56;;;;;;;5.40;4.10;;;;;;;;;;4820672;29;20050;-77
2022/02/20 02:22:24;;;;;;;5.45;4.47;;;;;;;;;;4823080;29;20102;-77
2022/02/20 02:24:51;;;;;;;5.70;3.58;;;;;;;;;;4808282;29;20401;-76
2022/02/20 02:27:17;;;;;;;4.50;3.88;;;;;;;;;;4808458;29;20110;-77
2022/02/20 02:29:44;;;;;;;6.68;4.20;;;;;;;;;;4843781;29;20048;-77
2022/02/20 02:32:10;;;;;;;5.15;3.97;;;;;;;;;;4851709;29;20064;-78
2022/02/20 02:34:36;;;;;;;4.97;3.90;;;;;;;;;;4809996;29;20122;-76
2022/02/20 02:37:03;;;;;;;6.05;4.00;;;;;;;;;;4803721;29;20407;-76
2022/02/20 02:39:29;;;;;;;4.85;3.95;;;;;;;;;;4832634;29;20081;-78
2022/02/20 02:41:55;;;;;;;5.93;4.60;;;;;;;;;;4828947;29;20121;-76
2022/02/20 02:44:21;;;;;;;7.90;4.88;;;;;;;;;;4871006;29;20466;-76
2022/02/20 02:46:47;;;;;;;6.82;4.45;;;;;;;;;;4855848;29;20469;-77
2022/02/20 02:49:13;;;;;;;6.63;4.65;;;;;;;;;;4839426;29;20053;-77
2022/02/20 02:51:40;;;;;;;6.88;4.80;;;;;;;;;;4839963;29;20118;-77
2022/02/20 02:54:07;;;;;;;10.38;5.38;;;;;;;;;;4839876;29;20085;-77
2022/02/20 02:56:34;;;;;;;7.43;5.15;;;;;;;;;;4839972;29;20497;-76
2022/02/20 02:59:00;;;;;;;7.38;5.78;;;;;;;;;;4825457;29;20072;-76
2022/02/20 03:01:26;;;;;;;8.85;5.85;;;;;;;;;;4857589;29;20056;-78
2022/02/20 03:03:52;;;;;;;10.13;6.15;;;;;;;;;;4852987;29;20045;-76
2022/02/20 03:06:19;;;;;;;9.18;5.70;;;;;;;;;;4840562;29;20042;-76
2022/02/20 03:08:45;;;;;;;7.20;5.60;;;;;;;;;;4870847;29;20136;-83
2022/02/20 03:11:12;;;;;;;7.28;5.80;;;;;;;;;;4839376;29;20485;-76
2022/02/20 03:13:38;;;;;;;8.65;5.78;;;;;;;;;;4839735;29;20065;-77
2022/02/20 03:16:05;;;;;;;12.30;5.82;;;;;;;;;;4840739;29;20641;-76
2022/02/20 03:18:31;;;;;;;8.25;5.75;;;;;;;;;;4869804;29;20081;-76
2022/02/20 03:21:02;;;;;;;7.45;5.32;;;;;;;;;;4839623;29;20057;-77
2022/02/20 03:23:28;;;;;;;10.32;6.32;;;;;;;;;;4839474;29;20442;-76
2022/02/20 03:25:54;;;;;;;9.38;5.97;;;;;;;;;;4826993;29;20056;-76
2022/02/20 03:28:20;;;;;;;8.98;6.35;;;;;;;;;;4823284;29;20128;-76
2022/02/20 03:30:46;;;;;;;10.85;6.20;;;;;;;;;;4854858;29;20049;-78
2022/02/20 03:33:12;;;;;;;8.88;6.05;;;;;;;;;;4867683;29;20052;-76
2022/02/20 03:35:39;;;;;;;11.27;6.32;;;;;;;;;;4826254;29;20069;-76
2022/02/20 03:38:05;;;;;;;10.30;6.15;;;;;;;;;;4833617;29;20053;-77
2022/02/20 03:40:31;;;;;;;9.48;6.10;;;;;;;;;;4869581;29;20041;-76
2022/02/20 03:42:59;;;;;;;12.32;6.18;;;;;;;;;;4825683;29;20053;-77
2022/02/20 03:45:25;;;;;;;12.93;6.25;;;;;;;;;;4824446;29;20053;-77
2022/02/20 03:47:51;;;;;;;9.32;5.72;;;;;;;;;;4823252;29;20059;-77
2022/02/20 03:50:17;;;;;;;10.20;6.32;;;;;;;;;;4840659;29;20057;-76
2022/02/20 03:52:45;;;;;;;10.30;6.32;;;;;;;;;;4839741;29;20045;-76
2022/02/20 03:55:12;;;;;;;10.15;6.40;;;;;;;;;;4854982;29;20084;-76
2022/02/20 03:57:38;;;;;;;9.88;6.38;;;;;;;;;;4840123;29;20144;-76
2022/02/20 04:00:06;;;;;;;10.57;5.75;;;;;;;;;;4854292;29;20056;-76
2022/02/20 04:02:34;;;;;;;10.10;5.07;;;;;;;;;;4824393;29;20093;-76
2022/02/20 04:05:00;;;;;;;14.07;5.68;;;;;;;;;;4837388;29;20085;-76
2022/02/20 04:07:26;;;;;;;10.88;6.13;;;;;;;;;;4836563;29;20049;-77
2022/02/20 04:09:52;;;;;;;12.57;6.28;;;;;;;;;;4853649;29;20485;-79
2022/02/20 04:12:18;;;;;;;6.95;5.60;;;;;;;;;;4837893;29;20050;-76
2022/02/20 04:14:44;;;;;;;10.65;6.05;;;;;;;;;;4870709;29;20107;-76
2022/02/20 04:17:10;;;;;;;9.05;5.45;;;;;;;;;;4820963;29;20121;-76
2022/02/20 04:19:36;;;;;;;9.02;5.13;;;;;;;;;;4856170;29;20045;-77
2022/02/20 04:22:02;;;;;;;10.98;5.75;;;;;;;;;;4838480;29;20089;-76
2022/02/20 04:24:28;;;;;;;10.30;5.13;;;;;;;;;;4823039;29;20485;-76
2022/02/20 04:26:54;;;;;;;13.85;5.38;;;;;;;;;;4839288;29;20050;-78
2022/02/20 04:29:20;;;;;;;9.95;5.45;;;;;;;;;;4824540;29;20060;-77
2022/02/20 04:31:47;;;;;;;9.15;4.93;;;;;;;;;;4838649;29;20053;-76
2022/02/20 04:34:13;;;;;;;10.80;4.68;;;;;;;;;;4824063;29;20042;-76
2022/02/20 04:36:39;;;;;;;9.00;5.25;;;;;;;;;;4838603;29;20053;-76
2022/02/20 04:39:06;;;;;;;11.18;5.05;;;;;;;;;;4834989;29;20077;-76
2022/02/20 04:41:32;;;;;;;7.18;5.00;;;;;;;;;;4853456;29;20057;-76
2022/02/20 04:43:59;;;;;;;10.75;5.30;;;;;;;;;;4868322;29;20053;-76
2022/02/20 04:46:25;;;;;;;7.50;5.00;;;;;;;;;;4869655;29;20070;-77
2022/02/20 04:48:51;;;;;;;9.73;4.75;;;;;;;;;;4838638;29;20041;-77
2022/02/20 04:51:17;;;;;;;14.45;4.55;;;;;;;;;;4838270;29;20051;-77
2022/02/20 04:53:43;;;;;;;8.05;4.05;;;;;;;;;;4839087;29;20056;-77
2022/02/20 04:56:10;;;;;;;8.23;4.60;;;;;;;;;;4823658;29;20164;-76
2022/02/20 04:58:36;;;;;;;10.93;4.57;;;;;;;;;;4825255;29;20049;-76
2022/02/20 05:01:02;;;;;;;10.75;4.80;;;;;;;;;;4840536;29;20458;-76
2022/02/20 05:03:28;;;;;;;9.27;4.30;;;;;;;;;;4825355;29;20089;-77
2022/02/20 05:05:54;;;;;;;9.05;4.28;;;;;;;;;;4857059;29;20069;-79
2022/02/20 05:08:21;;;;;;;6.50;3.80;;;;;;;;;;4841971;29;20048;-77
2022/02/20 05:10:47;;;;;;;6.57;4.30;;;;;;;;;;4853066;29;20110;-77
2022/02/20 05:13:13;;;;;;;11.20;4.53;;;;;;;;;;4841120;29;20064;-77
2022/02/20 05:15:39;;;;;;;9.35;5.20;;;;;;;;;;4872700;29;20082;-76
2022/02/20 05:18:05;;;;;;;10.80;5.10;;;;;;;;;;4857249;29;21692;-77
2022/02/20 05:20:31;;;;;;;9.93;4.65;;;;;;;;;;4827527;29;20458;-76
2022/02/20 05:22:57;;;;;;;15.75;4.55;;;;;;;;;;4827005;29;20041;-79
2022/02/20 05:25:23;;;;;;;11.35;4.18;;;;;;;;;;4871277;29;20045;-76
2022/02/20 05:27:49;;;;;;;10.43;3.95;;;;;;;;;;4843776;29;20496;-76
2022/02/20 05:30:16;;;;;;;11.98;4.45;;;;;;;;;;4841097;29;20056;-77
2022/02/20 05:32:43;;;;;;;10.30;4.18;;;;;;;;;;4843383;29;20098;-77
2022/02/20 05:35:09;;;;;;;6.32;4.35;;;;;;;;;;4824402;29;20136;-76
2022/02/20 05:37:42;;;;;;;6.85;3.72;;;;;;;;;;4827907;29;20056;-78
2022/02/20 05:40:09;;;;;;;8.32;3.63;;;;;;;;;;4856037;29;20429;-77
2022/02/20 05:42:35;;;;;;;10.13;3.55;;;;;;;;;;4872533;29;20080;-76
2022/02/20 05:45:01;;;;;;;8.63;3.80;;;;;;;;;;4855834;29;20093;-78
2022/02/20 05:47:27;;;;;;;7.90;3.40;;;;;;;;;;4811865;29;20091;-76
2022/02/20 05:49:53;;;;;;;8.82;3.58;;;;;;;;;;4828512;29;20050;-76
2022/02/20 05:52:20;;;;;;;13.32;3.60;;;;;;;;;;4826388;29;20567;-76
2022/02/20 05:54:46;;;;;;;9.88;3.75;;;;;;;;;;4842498;29;20470;-77
2022/02/20 05:57:12;;;;;;;8.15;3.65;;;;;;;;;;4838973;29;20057;-78
2022/02/20 05:59:38;;;;;;;13.90;3.78;;;;;;;;;;4872050;29;20067;-78
2022/02/20 06:02:04;;;;;;;7.28;3.22;;;;;;;;;;4856499;29;20046;-78
2022/02/20 06:04:30;;;;;;;8.07;2.65;;;;;;;;;;4842249;29;20389;-78
2022/02/20 06:06:56;;;;;;;6.72;3.00;;;;;;;;;;4839287;29;20041;-77
2022/02/20 06:09:22;;;;;;;6.60;3.17;;;;;;;;;;4825850;29;20048;-77
2022/02/20 06:11:48;;;;;;;9.38;3.00;;;;;;;;;;4825212;29;20041;-78
2022/02/20 06:14:14;;;;;;;12.50;3.50;;;;;;;;;;4855210;29;20049;-77
2022/02/20 06:16:40;;;;;;;14.52;3.67;;;;;;;;;;4828289;29;20377;-77
2022/02/20 06:19:06;;;;;;;13.00;3.83;;;;;;;;;;4826310;29;20049;-78
2022/02/20 06:21:33;;;;;;;10.07;3.28;;;;;;;;;;4842081;29;20049;-77
2022/02/20 06:23:59;;;;;;;8.20;3.70;;;;;;;;;;4854767;29;20049;-78
2022/02/20 06:26:25;;;;;;;10.10;3.45;;;;;;;;;;4871028;29;20072;-78
2022/02/20 06:28:51;;;;;;;13.63;4.10;;;;;;;;;;4828108;29;20049;-77
2022/02/20 06:31:17;;;;;;;12.57;5.07;;;;;;;;;;4857032;29;20122;-77
2022/02/20 06:33:43;;;;;;;9.80;4.15;;;;;;;;;;4871558;29;20512;-77
2022/02/20 06:36:10;;;;;;;6.25;4.00;;;;;;;;;;4854184;29;20845;-79
2022/02/20 06:38:36;;;;;;;9.13;4.82;;;;;;;;;;4839939;29;20398;-78
2022/02/20 06:41:02;;;;;;;8.50;5.57;;;;;;;;;;4825981;29;20057;-77
2022/02/20 06:43:28;;;;;;;11.40;5.43;;;;;;;;;;4840687;29;20408;-79
2022/02/20 06:45:54;;;;;;;10.43;5.38;;;;;;;;;;4824817;29;20262;-77
2022/02/20 06:48:20;;;;;;;11.90;6.22;;;;;;;;;;4837039;29;20136;-77
2022/02/20 06:50:47;;;;;;;11.60;5.70;;;;;;;;;;4854253;29;20124;-78
2022/02/20 06:53:13;;;;;;;13.27;6.18;;;;;;;;;;4823910;29;20560;-78
2022/02/20 06:55:39;;;;;;;7.68;5.85;;;;;;;;;;4841857;29;20046;-78
2022/02/20 06:58:05;;;;;;;10.35;5.60;;;;;;;;;;4825035;29;20050;-80
2022/02/20 07:00:32;;;;;;;10.90;6.03;;;;;;;;;;4843357;29;20105;-79
2022/02/20 07:02:58;;;;;;;14.43;5.60;;;;;;;;;;4854046;29;20053;-78
2022/02/20 07:05:24;;;;;;;11.90;6.15;;;;;;;;;;4851324;29;20050;-79
2022/02/20 07:07:50;;;;;;;10.65;5.55;;;;;;;;;;4836584;29;20102;-78
2022/02/20 15:44:23;;;;;;;65.47;10.82;;;;;;;;;;4888875;24;20070;-75
2022/02/20 15:46:53;;;;;;;60.58;10.02;;;;;;;;;;4904202;29;20044;-74
2022/02/20 15:49:20;;;;;;;60.67;9.85;;;;;;;;;;4904935;29;20119;-74
2022/02/20 15:51:46;;;;;;;51.90;10.43;;;;;;;;;;4897999;29;20079;-74
2022/02/20 15:54:12;;;;;;;64.72;10.75;;;;;;;;;;4901208;29;20158;-74
2022/02/20 15:56:39;;;;;;;51.22;9.95;;;;;;;;;;4902635;29;20127;-73
2022/02/20 15:59:05;;;;;;;54.65;10.75;;;;;;;;;;4889385;29;20123;-74
2022/02/20 16:01:31;;;;;;;62.95;9.85;;;;;;;;;;4889808;29;20106;-75
2022/02/20 16:03:57;;;;;;;58.63;10.70;;;;;;;;;;4887364;29;20147;-75
2022/02/20 16:06:24;;;;;;;81.30;12.68;;;;;;;;;;4900929;29;20044;-74
2022/02/20 16:08:50;;;;;;;62.97;11.77;;;;;;;;;;4892552;29;20043;-74
2022/02/20 16:11:17;;;;;;;57.63;9.60;;;;;;;;;;4906149;29;20062;-75
2022/02/20 16:13:43;;;;;;;62.95;11.93;;;;;;;;;;4909927;29;20044;-74
2022/02/20 16:16:09;;;;;;;72.45;12.20;;;;;;;;;;4907110;29;20487;-73
2022/02/20 16:18:36;;;;;;;68.35;11.02;;;;;;;;;;4904857;29;20425;-73
2022/02/20 16:21:02;;;;;;;59.97;10.82;;;;;;;;;;4893108;29;21078;-76
2022/02/20 16:23:30;;;;;;;66.72;10.27;;;;;;;;;;4900083;29;20142;-75
2022/02/20 16:26:01;;;;;;;53.47;9.90;;;;;;;;;;4881961;29;20056;-76
2022/02/20 16:28:30;;;;;;;49.33;9.85;;;;;;;;;;4905417;29;20183;-74
2022/02/20 16:30:56;;;;;;;57.95;9.32;;;;;;;;;;4873431;29;20498;-76
2022/02/20 16:33:23;;;;;;;46.08;9.30;;;;;;;;;;4901935;29;20484;-75
2022/02/20 16:35:49;;;;;;;55.40;10.57;;;;;;;;;;4902628;29;20134;-75
2022/02/20 16:38:16;;;;;;;43.78;7.88;;;;;;;;;;4908444;29;20059;-74
2022/02/20 16:40:43;;;;;;;44.58;8.88;;;;;;;;;;4885378;29;20468;-76
2022/02/20 16:43:13;;;;;;;45.75;8.05;;;;;;;;;;4889904;29;20075;-75
2022/02/20 16:45:41;;;;;;;51.05;8.75;;;;;;;;;;4893080;29;20096;-78
2022/02/20 16:48:07;;;;;;;44.38;9.27;;;;;;;;;;4892917;29;20054;-80
2022/02/20 16:50:37;;;;;;;51.65;10.30;;;;;;;;;;4888887;29;20062;-81
2022/02/20 16:53:06;;;;;;;53.90;9.10;;;;;;;;;;4906358;29;20060;-77
2022/02/20 16:55:33;;;;;;;49.85;9.88;;;;;;;;;;4894179;29;20052;-77
2022/02/20 16:57:59;;;;;;;46.15;9.05;;;;;;;;;;4912071;29;20087;-79
2022/02/20 17:00:25;;;;;;;52.70;8.80;;;;;;;;;;4910706;29;20107;-76
2022/02/20 17:02:51;;;;;;;35.03;7.35;;;;;;;;;;4895997;29;20060;-82
2022/02/20 17:05:17;;;;;;;48.55;7.50;;;;;;;;;;4898994;29;20059;-81
2022/02/20 17:07:43;;;;;;;36.80;7.28;;;;;;;;;;4909036;29;20054;-78
2022/02/20 17:10:10;;;;;;;37.38;7.47;;;;;;;;;;4893004;29;20091;-76
2022/02/20 17:12:36;;;;;;;33.70;7.30;;;;;;;;;;4906894;29;20524;-78
2022/02/20 17:15:04;;;;;;;31.30;7.45;;;;;;;;;;4908022;29;20448;-77
2022/02/20 17:17:31;;;;;;;38.45;8.45;;;;;;;;;;4893263;29;20462;-80
2022/02/20 17:19:57;;;;;;;32.30;8.05;;;;;;;;;;4919372;29;20047;-79
2022/02/20 17:22:24;;;;;;;35.17;6.93;;;;;;;;;;4903754;29;20079;-79
2022/02/20 17:24:50;;;;;;;34.17;5.85;;;;;;;;;;4892357;29;20055;-78
2022/02/20 17:27:16;;;;;;;21.70;6.35;;;;;;;;;;4896521;29;20054;-80
2022/02/20 17:29:42;;;;;;;27.23;5.60;;;;;;;;;;4877024;29;20050;-80
2022/02/20 17:32:09;;;;;;;27.67;5.72;;;;;;;;;;4878913;29;20103;-77
2022/02/20 17:34:35;;;;;;;24.27;5.65;;;;;;;;;;4909866;29;20053;-79
2022/02/20 17:37:01;;;;;;;29.08;6.10;;;;;;;;;;4894043;29;20056;-82
2022/02/20 17:39:27;;;;;;;29.35;6.22;;;;;;;;;;4907011;29;20046;-77
2022/02/20 17:41:54;;;;;;;23.85;5.43;;;;;;;;;;4896122;29;20056;-75
2022/02/20 17:44:21;;;;;;;27.63;5.72;;;;;;;;;;4913008;29;20043;-79
2022/02/20 17:46:48;;;;;;;28.52;5.82;;;;;;;;;;4911384;29;20556;-76
2022/02/20 17:49:14;;;;;;;27.75;6.65;;;;;;;;;;4912552;29;20126;-76
2022/02/20 17:51:40;;;;;;;28.48;6.03;;;;;;;;;;4902288;29;20542;-76
2022/02/20 17:54:07;;;;;;;27.40;5.55;;;;;;;;;;4894311;29;20175;-78
2022/02/20 17:56:34;;;;;;;23.38;5.35;;;;;;;;;;4911126;29;20212;-75
2022/02/20 17:59:02;;;;;;;29.83;6.15;;;;;;;;;;4910479;29;20070;-74
2022/02/20 18:01:29;;;;;;;26.98;5.20;;;;;;;;;;4873735;29;20091;-75
2022/02/20 18:03:55;;;;;;;25.77;5.97;;;;;;;;;;4889574;29;20390;-76
2022/02/20 18:06:21;;;;;;;26.33;5.55;;;;;;;;;;4902847;29;20048;-75
2022/02/20 18:08:47;;;;;;;20.45;4.63;;;;;;;;;;4907638;29;20056;-83
2022/02/20 18:11:13;;;;;;;23.48;5.13;;;;;;;;;;4891911;29;20052;-78
2022/02/20 18:13:42;;;;;;;23.15;5.30;;;;;;;;;;4897108;29;20051;-78
2022/02/20 18:16:09;;;;;;;18.17;4.63;;;;;;;;;;4889142;29;20062;-79
2022/02/20 18:18:35;;;;;;;19.40;4.35;;;;;;;;;;4907786;29;20060;-77
2022/02/20 18:21:02;;;;;;;15.90;5.70;;;;;;;;;;4906178;29;20484;-76
2022/02/20 18:23:28;;;;;;;23.23;5.47;;;;;;;;;;4887264;29;20058;-77
2022/02/20 18:25:54;;;;;;;25.23;6.22;;;;;;;;;;4889860;29;20456;-76
2022/02/20 18:28:20;;;;;;;24.70;5.75;;;;;;;;;;4910230;29;20087;-77
2022/02/20 18:30:47;;;;;;;20.75;5.28;;;;;;;;;;4907849;29;20048;-77
2022/02/20 18:33:13;;;;;;;19.40;4.82;;;;;;;;;;4908045;29;20139;-78
2022/02/20 18:35:40;;;;;;;27.20;5.65;;;;;;;;;;4889191;29;20039;-77
2022/02/20 18:38:06;;;;;;;16.17;4.28;;;;;;;;;;4881624;29;20091;-79
2022/02/20 18:40:35;;;;;;;24.80;4.18;;;;;;;;;;4904160;29;20060;-78
2022/02/20 18:43:02;;;;;;;15.70;4.55;;;;;;;;;;4876414;29;20123;-78
2022/02/20 18:45:28;;;;;;;25.45;3.80;;;;;;;;;;4889357;29;20051;-78
2022/02/20 18:47:54;;;;;;;18.20;4.05;;;;;;;;;;4905470;29;20059;-75
2022/02/20 18:50:20;;;;;;;21.67;5.25;;;;;;;;;;4889891;29;20135;-76
2022/02/20 18:52:46;;;;;;;18.08;4.43;;;;;;;;;;4908299;29;20079;-74
2022/02/20 18:55:13;;;;;;;20.90;4.30;;;;;;;;;;4894580;29;20136;-75
2022/02/20 18:57:39;;;;;;;14.95;3.70;;;;;;;;;;4906347;29;20883;-77
2022/02/20 19:00:09;;;;;;;18.42;4.18;;;;;;;;;;4908009;29;20054;-74
2022/02/20 19:02:36;;;;;;;22.00;5.40;;;;;;;;;;4906140;29;20138;-76
2022/02/20 19:05:02;;;;;;;15.85;3.55;;;;;;;;;;4911571;29;20103;-78
2022/02/20 19:07:28;;;;;;;21.92;4.55;;;;;;;;;;4908577;29;20048;-76
2022/02/20 19:09:56;;;;;;;20.33;4.28;;;;;;;;;;4907163;29;20440;-77
2022/02/20 19:12:22;;;;;;;18.55;4.82;;;;;;;;;;4912183;29;20095;-76
2022/02/20 19:14:49;;;;;;;18.63;4.35;;;;;;;;;;4910132;29;20436;-79
2022/02/20 19:17:15;;;;;;;21.15;4.55;;;;;;;;;;4897591;29;20074;-76
2022/02/20 19:19:41;;;;;;;20.10;5.00;;;;;;;;;;4916241;29;20044;-75
2022/02/20 19:22:07;;;;;;;14.77;3.78;;;;;;;;;;4895679;29;20044;-78
2022/02/20 19:24:33;;;;;;;23.90;4.20;;;;;;;;;;4910582;29;20449;-76
2022/02/20 19:27:00;;;;;;;22.55;4.75;;;;;;;;;;4914769;29;20059;-77
2022/02/20 19:29:27;;;;;;;26.83;5.15;;;;;;;;;;4910403;29;20233;-79
2022/02/20 19:31:53;;;;;;;27.33;5.35;;;;;;;;;;4891167;29;20056;-79
2022/02/20 19:34:21;;;;;;;26.33;4.97;;;;;;;;;;4908259;29;20463;-78
2022/02/20 19:36:52;;;;;;;22.88;4.80;;;;;;;;;;4889397;29;20070;-78
2022/02/20 19:39:19;;;;;;;26.77;5.53;;;;;;;;;;4876856;29;20816;-80
2022/02/20 19:41:45;;;;;;;23.83;5.28;;;;;;;;;;4911956;29;20563;-78
2022/02/20 19:44:11;;;;;;;21.85;5.10;;;;;;;;;;4891678;29;20486;-78
2022/02/20 19:46:37;;;;;;;27.10;5.88;;;;;;;;;;4896858;29;20059;-79
2022/02/20 19:49:04;;;;;;;24.88;5.70;;;;;;;;;;4906179;29;20079;-76
2022/02/20 19:51:32;;;;;;;24.40;5.43;;;;;;;;;;4874316;29;20135;-76
2022/02/20 19:53:58;;;;;;;26.00;4.82;;;;;;;;;;4895616;29;20142;-76
2022/02/20 19:56:25;;;;;;;17.55;4.05;;;;;;;;;;4909330;29;20554;-75
2022/02/20 19:58:51;;;;;;;18.58;4.20;;;;;;;;;;4910753;29;20064;-77
2022/02/20 20:01:17;;;;;;;25.08;5.57;;;;;;;;;;4910736;29;20047;-78
2022/02/20 20:03:43;;;;;;;23.45;5.03;;;;;;;;;;4904347;29;20495;-74
2022/02/20 20:06:09;;;;;;;20.05;4.82;;;;;;;;;;4913829;29;20056;-76
2022/02/20 20:08:35;;;;;;;16.25;3.90;;;;;;;;;;4907312;29;20055;-75
2022/02/20 20:11:01;;;;;;;20.88;3.78;;;;;;;;;;4895318;29;20106;-75
2022/02/20 20:13:27;;;;;;;19.77;4.07;;;;;;;;;;4879708;29;20466;-74
2022/02/20 20:15:54;;;;;;;16.15;3.22;;;;;;;;;;4893196;29;20500;-75
2022/02/20 20:18:21;;;;;;;17.27;3.80;;;;;;;;;;4908146;29;20048;-75
2022/02/20 20:20:47;;;;;;;13.73;3.58;;;;;;;;;;4894462;29;20075;-77
2022/02/20 20:23:13;;;;;;;17.63;4.07;;;;;;;;;;4905886;29;20052;-78
2022/02/20 20:25:39;;;;;;;11.18;3.42;;;;;;;;;;4905829;29;20076;-74
2022/02/20 20:28:05;;;;;;;20.73;3.88;;;;;;;;;;4905736;29;20051;-74
2022/02/20 20:30:31;;;;;;;15.80;3.67;;;;;;;;;;4905256;29;20036;-74
2022/02/20 20:32:58;;;;;;;17.35;3.65;;;;;;;;;;4891926;29;20062;-74
2022/02/20 20:35:24;;;;;;;15.07;3.60;;;;;;;;;;4889771;29;20289;-78
2022/02/20 20:37:54;;;;;;;16.42;3.35;;;;;;;;;;4881648;29;20476;-74
2022/02/20 20:40:47;;;;;;;16.17;4.43;;;;;;;;;;4896643;29;20048;-77
2022/02/20 20:43:13;;;;;;;23.98;4.60;;;;;;;;;;4910695;29;20048;-80
2022/02/20 20:45:39;;;;;;;21.27;4.47;;;;;;;;;;4900662;29;20059;-82
2022/02/20 20:48:06;;;;;;;24.20;4.63;;;;;;;;;;4915703;29;20056;-81
2022/02/20 20:50:32;;;;;;;17.25;3.78;;;;;;;;;;4900597;29;20067;-77
2022/02/20 20:52:59;;;;;;;19.17;3.80;;;;;;;;;;4912282;29;20455;-79
2022/02/20 20:55:25;;;;;;;14.75;4.30;;;;;;;;;;4896327;29;20103;-78
2022/02/20 20:57:51;;;;;;;21.33;5.00;;;;;;;;;;4912639;29;20182;-77
2022/02/20 21:00:17;;;;;;;15.38;3.05;;;;;;;;;;4911518;29;20052;-77
2022/02/20 21:02:44;;;;;;;9.25;2.55;;;;;;;;;;4879361;29;20355;-77
2022/02/20 21:05:10;;;;;;;10.90;2.10;;;;;;;;;;4912923;29;20591;-77
2022/02/20 21:07:37;;;;;;;13.93;2.65;;;;;;;;;;4913156;29;20051;-79
2022/02/20 21:10:04;;;;;;;9.30;1.70;;;;;;;;;;4895195;29;20088;-78
2022/02/20 21:12:37;;;;;;;9.20;1.85;;;;;;;;;;4912565;29;20040;-81
2022/02/20 21:15:03;;;;;;;3.60;0.70;;;;;;;;;;4911136;29;20071;-78
2022/02/20 21:17:29;;;;;;;4.45;0.80;;;;;;;;;;4897758;29;20050;-78
2022/02/20 21:19:55;;;;;;;7.50;1.08;;;;;;;;;;4881263;29;20057;-78
2022/02/20 21:22:21;;;;;;;13.32;1.95;;;;;;;;;;4897797;29;20070;-79
2022/02/20 21:24:47;;;;;;;5.38;1.08;;;;;;;;;;4891138;29;20155;-78
2022/02/20 21:27:13;;;;;;;10.00;1.17;;;;;;;;;;4881238;29;20055;-77
2022/02/20 21:29:39;;;;;;;9.93;1.85;;;;;;;;;;4889426;29;20060;-79
2022/02/20 21:32:08;;;;;;;8.45;1.77;;;;;;;;;;4892881;29;20096;-79
2022/02/20 21:34:34;;;;;;;10.13;1.73;;;;;;;;;;4877112;29;20492;-78
2022/02/20 21:37:00;;;;;;;13.00;2.35;;;;;;;;;;4910433;29;20048;-78
2022/02/20 21:39:27;;;;;;;10.00;1.70;;;;;;;;;;4902445;29;20575;-78
2022/02/20 21:41:54;;;;;;;11.93;2.42;;;;;;;;;;4905208;29;20060;-79
2022/02/20 21:44:20;;;;;;;13.50;2.40;;;;;;;;;;4895349;29;20048;-77
2022/02/20 21:46:46;;;;;;;19.10;3.22;;;;;;;;;;4907764;29;20048;-78
2022/02/20 21:49:12;;;;;;;16.17;3.35;;;;;;;;;;4896725;29;20178;-78
2022/02/20 21:51:39;;;;;;;14.05;2.08;;;;;;;;;;4910118;29;20497;-81
2022/02/20 21:54:05;;;;;;;14.90;2.00;;;;;;;;;;4877703;29;20063;-80
2022/02/20 21:56:31;;;;;;;17.17;2.58;;;;;;;;;;4911689;29;20122;-79
2022/02/20 21:58:57;;;;;;;19.00;2.40;;;;;;;;;;4913741;29;20043;-79
2022/02/20 22:01:23;;;;;;;17.83;2.40;;;;;;;;;;4900760;29;20414;-82
2022/02/20 22:03:49;;;;;;;16.58;2.42;;;;;;;;;;4914283;29;20051;-79
2022/02/20 22:06:16;;;;;;;10.27;1.58;;;;;;;;;;4917426;29;20061;-79
2022/02/20 22:08:42;;;;;;;14.70;2.22;;;;;;;;;;4911066;29;20415;-81
2022/02/20 22:11:08;;;;;;;11.02;2.38;;;;;;;;;;4898903;29;20055;-81
2022/02/20 22:13:34;;;;;;;14.48;2.00;;;;;;;;;;4915487;29;20419;-81
2022/02/20 22:16:00;;;;;;;8.70;1.50;;;;;;;;;;4897899;29;20056;-78
2022/02/20 22:18:26;;;;;;;13.98;2.03;;;;;;;;;;4912124;29;20098;-79
2022/02/20 22:20:53;;;;;;;11.15;1.70;;;;;;;;;;4896064;29;20139;-75
2022/02/20 22:23:19;;;;;;;6.75;0.95;;;;;;;;;;4886550;29;20543;-75
2022/02/20 22:25:45;;;;;;;10.95;2.40;;;;;;;;;;4896161;29;20480;-75
2022/02/20 22:28:11;;;;;;;13.93;2.03;;;;;;;;;;4902049;29;20131;-74
2022/02/20 22:30:37;;;;;;;12.27;1.60;;;;;;;;;;4915137;29;20142;-76
2022/02/20 22:33:04;;;;;;;9.13;1.20;;;;;;;;;;4898685;29;20044;-78
2022/02/20 22:35:30;;;;;;;6.63;1.27;;;;;;;;;;4910794;29;20063;-77
2022/02/20 22:37:58;;;;;;;9.10;1.73;;;;;;;;;;4915032;29;20475;-74
2022/02/20 22:40:25;;;;;;;10.77;1.48;;;;;;;;;;4910781;29;20492;-74
2022/02/20 22:42:51;;;;;;;8.60;1.67;;;;;;;;;;4904200;29;20127;-74
2022/02/20 22:45:17;;;;;;;10.43;1.33;;;;;;;;;;4915424;29;20520;-74
2022/02/20 22:47:43;;;;;;;10.43;1.58;;;;;;;;;;4901839;29;20059;-74
2022/02/20 22:50:10;;;;;;;17.55;2.22;;;;;;;;;;4900122;29;20138;-74
2022/02/20 22:52:36;;;;;;;10.27;1.55;;;;;;;;;;4912249;29;20514;-74
2022/02/20 22:55:02;;;;;;;19.67;2.20;;;;;;;;;;4911272;29;20063;-77
2022/02/20 22:57:28;;;;;;;12.20;1.85;;;;;;;;;;4901064;29;20060;-79
2022/02/20 22:59:56;;;;;;;14.93;2.08;;;;;;;;;;4896053;29;20048;-77
2022/02/20 23:02:23;;;;;;;15.18;2.20;;;;;;;;;;4899402;29;20410;-77